sensor_id;sensor_type;location;lat;lon;timestamp;P1;durP1;ratioP1;P2;durP2;ratioP2
3311;SDS011;1668;49.648;8.570;2023-03-01T00:02:21;12.93;;;8.17;;
3311;SDS011;1668;49.648;8.570;2023-03-01T00:04:49;12.80;;;8.60;;
3311;SDS011;1668;49.648;8.570;2023-03-01T00:07:16;13.87;;;8.23;;
3311;SDS011;1668;49.648;8.570;2023-03-01T00:09:43;14.50;;;9.13;;
3311;SDS011;1668;49.648;8.570;2023-03-01T00:12:11;14.23;;;9.23;;
3311;SDS011;1668;49.648;8.570;2023-03-01T00:14:37;15.00;;;8.53;;
3311;SDS011;1668;49.648;8.570;2023-03-01T00:17:04;16.00;;;9.07;;
3311;SDS011;1668;49.648;8.570;2023-03-01T00:19:31;11.80;;;8.07;;
3311;SDS011;1668;49.648;8.570;2023-03-01T00:21:59;12.90;;;9.10;;
3311;SDS011;1668;49.648;8.570;2023-03-01T00:24:26;12.50;;;8.83;;
3311;SDS011;1668;49.648;8.570;2023-03-01T00:26:53;12.40;;;8.40;;
3311;SDS011;1668;49.648;8.570;2023-03-01T00:32:43;12.70;;;8.67;;
3311;SDS011;1668;49.648;8.570;2023-03-01T00:35:10;11.10;;;8.33;;
3311;SDS011;1668;49.648;8.570;2023-03-01T00:37:38;11.87;;;8.43;;
3311;SDS011;1668;49.648;8.570;2023-03-01T00:40:07;11.83;;;8.10;;
3311;SDS011;1668;49.648;8.570;2023-03-01T00:42:35;13.90;;;8.70;;
3311;SDS011;1668;49.648;8.570;2023-03-01T00:45:02;13.00;;;8.87;;
3311;SDS011;1668;49.648;8.570;2023-03-01T00:47:29;15.00;;;9.53;;
3311;SDS011;1668;49.648;8.570;2023-03-01T00:49:56;15.20;;;9.27;;
3311;SDS011;1668;49.648;8.570;2023-03-01T00:52:23;14.00;;;9.37;;
3311;SDS011;1668;49.648;8.570;2023-03-01T00:54:53;14.30;;;9.00;;
3311;SDS011;1668;49.648;8.570;2023-03-01T00:57:19;14.30;;;9.10;;
3311;SDS011;1668;49.648;8.570;2023-03-01T00:59:46;13.90;;;8.93;;
3311;SDS011;1668;49.648;8.570;2023-03-01T01:02:13;13.23;;;7.73;;
3311;SDS011;1668;49.648;8.570;2023-03-01T01:04:40;14.87;;;8.53;;
3311;SDS011;1668;49.648;8.570;2023-03-01T01:07:07;12.93;;;8.60;;
3311;SDS011;1668;49.648;8.570;2023-03-01T01:09:34;13.63;;;9.57;;
3311;SDS011;1668;49.648;8.570;2023-03-01T01:15:25;13.40;;;8.37;;
3311;SDS011;1668;49.648;8.570;2023-03-01T01:17:52;17.63;;;9.13;;
3311;SDS011;1668;49.648;8.570;2023-03-01T01:20:19;14.17;;;9.40;;
3311;SDS011;1668;49.648;8.570;2023-03-01T01:22:46;14.57;;;8.77;;
3311;SDS011;1668;49.648;8.570;2023-03-01T01:25:13;15.67;;;9.93;;
3311;SDS011;1668;49.648;8.570;2023-03-01T01:27:40;13.37;;;8.40;;
3311;SDS011;1668;49.648;8.570;2023-03-01T01:30:10;14.10;;;9.13;;
3311;SDS011;1668;49.648;8.570;2023-03-01T01:32:41;17.30;;;9.50;;
3311;SDS011;1668;49.648;8.570;2023-03-01T01:35:08;12.73;;;8.43;;
3311;SDS011;1668;49.648;8.570;2023-03-01T01:37:35;14.03;;;9.23;;
3311;SDS011;1668;49.648;8.570;2023-03-01T01:40:02;14.87;;;9.17;;
3311;SDS011;1668;49.648;8.570;2023-03-01T01:42:30;15.47;;;9.70;;
3311;SDS011;1668;49.648;8.570;2023-03-01T01:45:24;15.57;;;9.53;;
3311;SDS011;1668;49.648;8.570;2023-03-01T01:47:55;15.93;;;9.90;;
3311;SDS011;1668;49.648;8.570;2023-03-01T01:50:25;12.70;;;9.13;;
3311;SDS011;1668;49.648;8.570;2023-03-01T01:52:52;14.33;;;9.50;;
3311;SDS011;1668;49.648;8.570;2023-03-01T01:55:21;13.77;;;9.77;;
3311;SDS011;1668;49.648;8.570;2023-03-01T01:57:53;14.07;;;9.30;;
3311;SDS011;1668;49.648;8.570;2023-03-01T02:00:25;16.80;;;9.60;;
3311;SDS011;1668;49.648;8.570;2023-03-01T02:02:56;15.77;;;10.10;;
3311;SDS011;1668;49.648;8.570;2023-03-01T02:05:26;16.07;;;10.13;;
3311;SDS011;1668;49.648;8.570;2023-03-01T02:07:58;15.40;;;9.33;;
3311;SDS011;1668;49.648;8.570;2023-03-01T02:10:25;15.40;;;9.43;;
3311;SDS011;1668;49.648;8.570;2023-03-01T02:12:54;15.67;;;9.57;;
3311;SDS011;1668;49.648;8.570;2023-03-01T02:15:22;16.90;;;10.57;;
3311;SDS011;1668;49.648;8.570;2023-03-01T02:17:49;16.07;;;9.80;;
3311;SDS011;1668;49.648;8.570;2023-03-01T02:20:20;15.63;;;10.20;;
3311;SDS011;1668;49.648;8.570;2023-03-01T02:22:52;16.67;;;9.90;;
3311;SDS011;1668;49.648;8.570;2023-03-01T02:25:24;14.77;;;9.37;;
3311;SDS011;1668;49.648;8.570;2023-03-01T02:27:54;14.50;;;9.63;;
3311;SDS011;1668;49.648;8.570;2023-03-01T02:30:27;19.67;;;9.93;;
3311;SDS011;1668;49.648;8.570;2023-03-01T02:32:54;16.77;;;10.30;;
3311;SDS011;1668;49.648;8.570;2023-03-01T02:35:28;16.80;;;10.40;;
3311;SDS011;1668;49.648;8.570;2023-03-01T02:37:58;17.33;;;10.43;;
3311;SDS011;1668;49.648;8.570;2023-03-01T02:40:26;16.83;;;10.60;;
3311;SDS011;1668;49.648;8.570;2023-03-01T02:42:56;16.83;;;10.23;;
3311;SDS011;1668;49.648;8.570;2023-03-01T02:45:24;15.53;;;10.63;;
3311;SDS011;1668;49.648;8.570;2023-03-01T02:47:53;15.90;;;10.37;;
3311;SDS011;1668;49.648;8.570;2023-03-01T02:50:28;19.23;;;11.67;;
3311;SDS011;1668;49.648;8.570;2023-03-01T02:53:10;19.10;;;11.13;;
3311;SDS011;1668;49.648;8.570;2023-03-01T02:55:42;17.70;;;10.40;;
3311;SDS011;1668;49.648;8.570;2023-03-01T02:58:09;15.43;;;9.50;;
3311;SDS011;1668;49.648;8.570;2023-03-01T03:00:38;21.63;;;11.40;;
3311;SDS011;1668;49.648;8.570;2023-03-01T03:03:10;18.43;;;10.70;;
3311;SDS011;1668;49.648;8.570;2023-03-01T03:11:54;24.70;;;10.70;;
3311;SDS011;1668;49.648;8.570;2023-03-01T03:14:20;14.97;;;10.03;;
3311;SDS011;1668;49.648;8.570;2023-03-01T03:16:49;19.30;;;10.93;;
3311;SDS011;1668;49.648;8.570;2023-03-01T03:19:16;15.63;;;9.40;;
3311;SDS011;1668;49.648;8.570;2023-03-01T03:21:44;14.67;;;9.63;;
3311;SDS011;1668;49.648;8.570;2023-03-01T03:24:11;15.17;;;10.30;;
3311;SDS011;1668;49.648;8.570;2023-03-01T03:26:38;15.73;;;8.93;;
3311;SDS011;1668;49.648;8.570;2023-03-01T03:29:04;15.27;;;10.13;;
3311;SDS011;1668;49.648;8.570;2023-03-01T03:31:31;15.23;;;10.73;;
3311;SDS011;1668;49.648;8.570;2023-03-01T03:33:59;16.47;;;10.50;;
3311;SDS011;1668;49.648;8.570;2023-03-01T03:36:26;19.23;;;11.17;;
3311;SDS011;1668;49.648;8.570;2023-03-01T03:38:53;18.13;;;11.50;;
3311;SDS011;1668;49.648;8.570;2023-03-01T03:41:20;24.43;;;11.63;;
3311;SDS011;1668;49.648;8.570;2023-03-01T03:43:47;17.93;;;10.37;;
3311;SDS011;1668;49.648;8.570;2023-03-01T03:46:14;15.57;;;10.10;;
3311;SDS011;1668;49.648;8.570;2023-03-01T03:48:43;14.70;;;10.20;;
3311;SDS011;1668;49.648;8.570;2023-03-01T03:51:12;19.17;;;11.00;;
3311;SDS011;1668;49.648;8.570;2023-03-01T03:53:40;16.50;;;10.73;;
3311;SDS011;1668;49.648;8.570;2023-03-01T03:56:08;17.80;;;10.73;;
3311;SDS011;1668;49.648;8.570;2023-03-01T03:58:35;18.57;;;10.10;;
3311;SDS011;1668;49.648;8.570;2023-03-01T04:01:03;17.30;;;11.10;;
3311;SDS011;1668;49.648;8.570;2023-03-01T04:03:30;16.03;;;10.70;;
3311;SDS011;1668;49.648;8.570;2023-03-01T04:05:58;19.73;;;10.93;;
3311;SDS011;1668;49.648;8.570;2023-03-01T04:08:27;16.87;;;11.33;;
3311;SDS011;1668;49.648;8.570;2023-03-01T04:10:57;23.87;;;13.20;;
3311;SDS011;1668;49.648;8.570;2023-03-01T04:13:25;23.87;;;12.37;;
3311;SDS011;1668;49.648;8.570;2023-03-01T04:15:52;20.97;;;11.57;;
3311;SDS011;1668;49.648;8.570;2023-03-01T04:18:20;17.80;;;10.70;;
3311;SDS011;1668;49.648;8.570;2023-03-01T04:20:48;15.77;;;10.50;;
3311;SDS011;1668;49.648;8.570;2023-03-01T04:23:17;16.27;;;10.80;;
3311;SDS011;1668;49.648;8.570;2023-03-01T04:25:47;17.13;;;11.00;;
3311;SDS011;1668;49.648;8.570;2023-03-01T04:28:18;17.20;;;11.80;;
3311;SDS011;1668;49.648;8.570;2023-03-01T04:30:46;17.37;;;10.60;;
3311;SDS011;1668;49.648;8.570;2023-03-01T04:33:13;16.40;;;10.80;;
3311;SDS011;1668;49.648;8.570;2023-03-01T04:35:40;18.00;;;10.00;;
3311;SDS011;1668;49.648;8.570;2023-03-01T04:38:07;19.53;;;11.80;;
3311;SDS011;1668;49.648;8.570;2023-03-01T04:40:34;16.90;;;11.80;;
3311;SDS011;1668;49.648;8.570;2023-03-01T04:43:03;17.53;;;10.60;;
3311;SDS011;1668;49.648;8.570;2023-03-01T04:45:31;19.10;;;11.73;;
3311;SDS011;1668;49.648;8.570;2023-03-01T04:48:00;19.23;;;11.03;;
3311;SDS011;1668;49.648;8.570;2023-03-01T04:50:27;16.00;;;10.03;;
3311;SDS011;1668;49.648;8.570;2023-03-01T04:52:54;18.37;;;10.70;;
3311;SDS011;1668;49.648;8.570;2023-03-01T04:55:23;17.90;;;10.70;;
3311;SDS011;1668;49.648;8.570;2023-03-01T04:57:51;16.43;;;9.80;;
3311;SDS011;1668;49.648;8.570;2023-03-01T05:00:19;18.40;;;10.70;;
3311;SDS011;1668;49.648;8.570;2023-03-01T05:02:48;16.27;;;11.43;;
3311;SDS011;1668;49.648;8.570;2023-03-01T05:05:19;20.47;;;10.93;;
3311;SDS011;1668;49.648;8.570;2023-03-01T05:07:50;19.53;;;12.30;;
3311;SDS011;1668;49.648;8.570;2023-03-01T05:10:19;20.53;;;11.67;;
3311;SDS011;1668;49.648;8.570;2023-03-01T05:12:45;17.60;;;11.00;;
3311;SDS011;1668;49.648;8.570;2023-03-01T05:15:12;17.73;;;11.17;;
3311;SDS011;1668;49.648;8.570;2023-03-01T05:17:41;18.37;;;11.03;;
3311;SDS011;1668;49.648;8.570;2023-03-01T05:20:08;18.10;;;11.17;;
3311;SDS011;1668;49.648;8.570;2023-03-01T05:22:36;19.00;;;11.20;;
3311;SDS011;1668;49.648;8.570;2023-03-01T05:25:04;16.13;;;11.23;;
3311;SDS011;1668;49.648;8.570;2023-03-01T05:27:32;19.57;;;11.73;;
3311;SDS011;1668;49.648;8.570;2023-03-01T05:29:59;16.63;;;10.77;;
3311;SDS011;1668;49.648;8.570;2023-03-01T05:32:38;16.77;;;11.43;;
3311;SDS011;1668;49.648;8.570;2023-03-01T05:35:09;18.33;;;11.20;;
3311;SDS011;1668;49.648;8.570;2023-03-01T05:37:39;16.80;;;10.37;;
3311;SDS011;1668;49.648;8.570;2023-03-01T05:43:30;18.47;;;10.83;;
3311;SDS011;1668;49.648;8.570;2023-03-01T05:45:58;17.17;;;11.37;;
3311;SDS011;1668;49.648;8.570;2023-03-01T05:48:27;17.77;;;11.27;;
3311;SDS011;1668;49.648;8.570;2023-03-01T05:50:53;18.40;;;11.57;;
3311;SDS011;1668;49.648;8.570;2023-03-01T05:53:20;18.47;;;10.60;;
3311;SDS011;1668;49.648;8.570;2023-03-01T05:55:47;21.60;;;10.73;;
3311;SDS011;1668;49.648;8.570;2023-03-01T05:58:15;17.90;;;10.80;;
3311;SDS011;1668;49.648;8.570;2023-03-01T06:00:43;15.10;;;9.93;;
3311;SDS011;1668;49.648;8.570;2023-03-01T06:03:12;16.57;;;10.30;;
3311;SDS011;1668;49.648;8.570;2023-03-01T06:05:41;16.57;;;11.00;;
3311;SDS011;1668;49.648;8.570;2023-03-01T06:08:09;16.50;;;10.70;;
3311;SDS011;1668;49.648;8.570;2023-03-01T06:10:37;18.93;;;11.60;;
3311;SDS011;1668;49.648;8.570;2023-03-01T06:13:03;15.60;;;10.03;;
3311;SDS011;1668;49.648;8.570;2023-03-01T06:15:31;16.80;;;10.83;;
3311;SDS011;1668;49.648;8.570;2023-03-01T06:17:57;16.20;;;10.40;;
3311;SDS011;1668;49.648;8.570;2023-03-01T06:20:25;17.73;;;10.70;;
3311;SDS011;1668;49.648;8.570;2023-03-01T06:22:55;15.60;;;10.53;;
3311;SDS011;1668;49.648;8.570;2023-03-01T06:25:23;18.30;;;10.90;;
3311;SDS011;1668;49.648;8.570;2023-03-01T06:27:51;20.83;;;11.53;;
3311;SDS011;1668;49.648;8.570;2023-03-01T06:30:19;18.87;;;10.77;;
3311;SDS011;1668;49.648;8.570;2023-03-01T06:32:47;17.60;;;11.47;;
3311;SDS011;1668;49.648;8.570;2023-03-01T06:35:14;20.00;;;11.50;;
3311;SDS011;1668;49.648;8.570;2023-03-01T06:37:43;23.97;;;12.17;;
3311;SDS011;1668;49.648;8.570;2023-03-01T06:40:12;17.63;;;11.70;;
3311;SDS011;1668;49.648;8.570;2023-03-01T06:42:40;25.53;;;18.57;;
3311;SDS011;1668;49.648;8.570;2023-03-01T06:45:08;20.70;;;13.93;;
3311;SDS011;1668;49.648;8.570;2023-03-01T06:47:36;21.43;;;13.27;;
3311;SDS011;1668;49.648;8.570;2023-03-01T06:50:03;20.50;;;12.37;;
3311;SDS011;1668;49.648;8.570;2023-03-01T06:52:30;19.77;;;12.00;;
3311;SDS011;1668;49.648;8.570;2023-03-01T06:54:57;22.20;;;13.10;;
3311;SDS011;1668;49.648;8.570;2023-03-01T06:57:26;22.73;;;13.37;;
3311;SDS011;1668;49.648;8.570;2023-03-01T06:59:53;24.00;;;12.80;;
3311;SDS011;1668;49.648;8.570;2023-03-01T07:02:20;22.33;;;13.50;;
3311;SDS011;1668;49.648;8.570;2023-03-01T07:04:48;20.33;;;12.63;;
3311;SDS011;1668;49.648;8.570;2023-03-01T07:07:15;23.37;;;10.93;;
3311;SDS011;1668;49.648;8.570;2023-03-01T07:09:43;20.33;;;12.77;;
3311;SDS011;1668;49.648;8.570;2023-03-01T07:12:10;20.30;;;12.47;;
3311;SDS011;1668;49.648;8.570;2023-03-01T07:14:38;20.33;;;12.70;;
3311;SDS011;1668;49.648;8.570;2023-03-01T07:17:06;20.47;;;12.73;;
3311;SDS011;1668;49.648;8.570;2023-03-01T07:19:33;22.10;;;13.10;;
3311;SDS011;1668;49.648;8.570;2023-03-01T07:25:22;21.33;;;12.77;;
3311;SDS011;1668;49.648;8.570;2023-03-01T07:27:49;21.00;;;13.10;;
3311;SDS011;1668;49.648;8.570;2023-03-01T07:30:19;17.53;;;11.33;;
3311;SDS011;1668;49.648;8.570;2023-03-01T07:32:46;18.10;;;11.60;;
3311;SDS011;1668;49.648;8.570;2023-03-01T07:35:13;20.40;;;12.50;;
3311;SDS011;1668;49.648;8.570;2023-03-01T07:37:40;17.77;;;11.67;;
3311;SDS011;1668;49.648;8.570;2023-03-01T07:40:09;20.03;;;12.23;;
3311;SDS011;1668;49.648;8.570;2023-03-01T07:42:37;18.80;;;12.00;;
3311;SDS011;1668;49.648;8.570;2023-03-01T07:45:04;17.27;;;10.87;;
3311;SDS011;1668;49.648;8.570;2023-03-01T07:47:34;17.77;;;10.93;;
3311;SDS011;1668;49.648;8.570;2023-03-01T07:50:02;16.67;;;11.57;;
3311;SDS011;1668;49.648;8.570;2023-03-01T07:52:29;20.90;;;12.60;;
3311;SDS011;1668;49.648;8.570;2023-03-01T07:54:56;18.83;;;12.10;;
3311;SDS011;1668;49.648;8.570;2023-03-01T07:57:23;19.70;;;12.23;;
3311;SDS011;1668;49.648;8.570;2023-03-01T07:59:50;17.70;;;10.80;;
3311;SDS011;1668;49.648;8.570;2023-03-01T08:02:17;16.60;;;10.80;;
3311;SDS011;1668;49.648;8.570;2023-03-01T08:04:45;17.70;;;11.87;;
3311;SDS011;1668;49.648;8.570;2023-03-01T08:07:12;16.73;;;11.23;;
3311;SDS011;1668;49.648;8.570;2023-03-01T08:09:39;18.87;;;12.30;;
3311;SDS011;1668;49.648;8.570;2023-03-01T08:12:07;21.43;;;13.40;;
3311;SDS011;1668;49.648;8.570;2023-03-01T08:14:33;20.47;;;13.27;;
3311;SDS011;1668;49.648;8.570;2023-03-01T08:17:00;19.93;;;12.60;;
3311;SDS011;1668;49.648;8.570;2023-03-01T08:19:29;19.70;;;12.60;;
3311;SDS011;1668;49.648;8.570;2023-03-01T08:21:57;18.87;;;13.03;;
3311;SDS011;1668;49.648;8.570;2023-03-01T08:24:25;17.10;;;11.77;;
3311;SDS011;1668;49.648;8.570;2023-03-01T08:26:52;17.07;;;11.77;;
3311;SDS011;1668;49.648;8.570;2023-03-01T08:29:19;19.77;;;12.53;;
3311;SDS011;1668;49.648;8.570;2023-03-01T08:31:47;20.30;;;12.30;;
3311;SDS011;1668;49.648;8.570;2023-03-01T08:34:16;21.47;;;13.30;;
3311;SDS011;1668;49.648;8.570;2023-03-01T08:36:44;17.83;;;12.27;;
3311;SDS011;1668;49.648;8.570;2023-03-01T08:39:14;20.33;;;13.30;;
3311;SDS011;1668;49.648;8.570;2023-03-01T08:41:41;24.30;;;14.00;;
3311;SDS011;1668;49.648;8.570;2023-03-01T08:44:09;22.70;;;13.37;;
3311;SDS011;1668;49.648;8.570;2023-03-01T08:46:37;22.73;;;13.97;;
3311;SDS011;1668;49.648;8.570;2023-03-01T08:49:23;21.53;;;13.50;;
3311;SDS011;1668;49.648;8.570;2023-03-01T08:51:51;23.03;;;13.00;;
3311;SDS011;1668;49.648;8.570;2023-03-01T08:54:20;24.13;;;14.03;;
3311;SDS011;1668;49.648;8.570;2023-03-01T08:56:48;18.37;;;12.30;;
3311;SDS011;1668;49.648;8.570;2023-03-01T08:59:15;19.30;;;13.27;;
3311;SDS011;1668;49.648;8.570;2023-03-01T09:01:43;17.60;;;12.83;;
3311;SDS011;1668;49.648;8.570;2023-03-01T09:04:10;19.57;;;12.40;;
3311;SDS011;1668;49.648;8.570;2023-03-01T09:06:37;20.23;;;13.30;;
3311;SDS011;1668;49.648;8.570;2023-03-01T09:09:04;19.30;;;12.60;;
3311;SDS011;1668;49.648;8.570;2023-03-01T09:11:33;22.57;;;13.43;;
3311;SDS011;1668;49.648;8.570;2023-03-01T09:14:00;21.97;;;14.13;;
3311;SDS011;1668;49.648;8.570;2023-03-01T09:16:26;19.20;;;12.83;;
3311;SDS011;1668;49.648;8.570;2023-03-01T09:18:54;23.07;;;13.87;;
3311;SDS011;1668;49.648;8.570;2023-03-01T09:21:22;20.43;;;13.67;;
3311;SDS011;1668;49.648;8.570;2023-03-01T09:23:49;19.53;;;13.83;;
3311;SDS011;1668;49.648;8.570;2023-03-01T09:26:17;19.90;;;12.80;;
3311;SDS011;1668;49.648;8.570;2023-03-01T09:28:48;23.50;;;14.60;;
3311;SDS011;1668;49.648;8.570;2023-03-01T09:31:17;18.93;;;13.03;;
3311;SDS011;1668;49.648;8.570;2023-03-01T09:33:47;22.40;;;14.10;;
3311;SDS011;1668;49.648;8.570;2023-03-01T09:36:15;22.37;;;13.57;;
3311;SDS011;1668;49.648;8.570;2023-03-01T09:38:45;21.80;;;13.77;;
3311;SDS011;1668;49.648;8.570;2023-03-01T09:41:23;22.60;;;14.30;;
3311;SDS011;1668;49.648;8.570;2023-03-01T09:44:09;21.97;;;14.20;;
3311;SDS011;1668;49.648;8.570;2023-03-01T09:46:45;26.17;;;17.00;;
3311;SDS011;1668;49.648;8.570;2023-03-01T09:49:14;22.40;;;14.23;;
3311;SDS011;1668;49.648;8.570;2023-03-01T09:51:46;19.13;;;13.13;;
3311;SDS011;1668;49.648;8.570;2023-03-01T09:54:20;22.73;;;14.57;;
3311;SDS011;1668;49.648;8.570;2023-03-01T09:56:52;20.93;;;14.00;;
3311;SDS011;1668;49.648;8.570;2023-03-01T09:59:32;20.60;;;13.50;;
3311;SDS011;1668;49.648;8.570;2023-03-01T10:02:14;21.57;;;13.10;;
3311;SDS011;1668;49.648;8.570;2023-03-01T10:04:51;20.60;;;13.80;;
3311;SDS011;1668;49.648;8.570;2023-03-01T10:07:23;19.17;;;13.43;;
3311;SDS011;1668;49.648;8.570;2023-03-01T10:09:58;23.03;;;14.70;;
3311;SDS011;1668;49.648;8.570;2023-03-01T10:12:31;21.10;;;13.97;;
3311;SDS011;1668;49.648;8.570;2023-03-01T10:15:04;19.63;;;13.50;;
3311;SDS011;1668;49.648;8.570;2023-03-01T10:17:38;19.77;;;13.90;;
3311;SDS011;1668;49.648;8.570;2023-03-01T10:20:15;22.47;;;13.50;;
3311;SDS011;1668;49.648;8.570;2023-03-01T10:22:46;24.13;;;14.87;;
3311;SDS011;1668;49.648;8.570;2023-03-01T10:25:17;18.77;;;12.87;;
3311;SDS011;1668;49.648;8.570;2023-03-01T10:27:59;25.73;;;14.80;;
3311;SDS011;1668;49.648;8.570;2023-03-01T10:30:34;23.17;;;15.00;;
3311;SDS011;1668;49.648;8.570;2023-03-01T10:33:03;22.97;;;14.93;;
3311;SDS011;1668;49.648;8.570;2023-03-01T10:35:39;22.17;;;13.60;;
3311;SDS011;1668;49.648;8.570;2023-03-01T10:38:07;22.10;;;14.13;;
3311;SDS011;1668;49.648;8.570;2023-03-01T10:40:36;20.10;;;13.30;;
3311;SDS011;1668;49.648;8.570;2023-03-01T10:43:16;19.80;;;13.33;;
3311;SDS011;1668;49.648;8.570;2023-03-01T10:45:45;19.53;;;12.67;;
3311;SDS011;1668;49.648;8.570;2023-03-01T10:48:13;20.03;;;13.80;;
3311;SDS011;1668;49.648;8.570;2023-03-01T10:50:42;22.10;;;14.90;;
3311;SDS011;1668;49.648;8.570;2023-03-01T10:53:20;20.50;;;13.97;;
3311;SDS011;1668;49.648;8.570;2023-03-01T10:56:01;18.40;;;13.00;;
3311;SDS011;1668;49.648;8.570;2023-03-01T10:58:31;21.67;;;15.40;;
3311;SDS011;1668;49.648;8.570;2023-03-01T11:01:01;21.53;;;14.33;;
3311;SDS011;1668;49.648;8.570;2023-03-01T11:03:30;25.10;;;14.83;;
3311;SDS011;1668;49.648;8.570;2023-03-01T11:06:00;19.60;;;13.90;;
3311;SDS011;1668;49.648;8.570;2023-03-01T11:08:29;20.63;;;14.50;;
3311;SDS011;1668;49.648;8.570;2023-03-01T11:11:05;21.80;;;14.70;;
3311;SDS011;1668;49.648;8.570;2023-03-01T11:13:52;22.30;;;15.30;;
3311;SDS011;1668;49.648;8.570;2023-03-01T11:16:26;21.77;;;14.80;;
3311;SDS011;1668;49.648;8.570;2023-03-01T11:18:57;22.30;;;14.27;;
3311;SDS011;1668;49.648;8.570;2023-03-01T11:21:25;18.20;;;13.50;;
3311;SDS011;1668;49.648;8.570;2023-03-01T11:23:54;21.30;;;14.43;;
3311;SDS011;1668;49.648;8.570;2023-03-01T11:26:23;20.90;;;14.03;;
3311;SDS011;1668;49.648;8.570;2023-03-01T11:28:51;22.77;;;14.43;;
3311;SDS011;1668;49.648;8.570;2023-03-01T11:31:22;21.00;;;14.23;;
3311;SDS011;1668;49.648;8.570;2023-03-01T11:33:53;19.63;;;14.30;;
3311;SDS011;1668;49.648;8.570;2023-03-01T11:36:26;22.63;;;15.20;;
3311;SDS011;1668;49.648;8.570;2023-03-01T11:38:56;22.43;;;14.87;;
3311;SDS011;1668;49.648;8.570;2023-03-01T11:41:28;19.93;;;13.63;;
3311;SDS011;1668;49.648;8.570;2023-03-01T11:43:58;21.47;;;14.57;;
3311;SDS011;1668;49.648;8.570;2023-03-01T11:46:32;19.50;;;13.77;;
3311;SDS011;1668;49.648;8.570;2023-03-01T11:49:24;18.73;;;13.70;;
3311;SDS011;1668;49.648;8.570;2023-03-01T11:52:18;20.70;;;13.20;;
3311;SDS011;1668;49.648;8.570;2023-03-01T11:54:58;20.43;;;14.40;;
3311;SDS011;1668;49.648;8.570;2023-03-01T11:57:39;19.30;;;13.93;;
3311;SDS011;1668;49.648;8.570;2023-03-01T12:00:17;25.30;;;14.10;;
3311;SDS011;1668;49.648;8.570;2023-03-01T12:03:02;21.60;;;13.97;;
3311;SDS011;1668;49.648;8.570;2023-03-01T12:06:00;21.67;;;14.13;;
3311;SDS011;1668;49.648;8.570;2023-03-01T12:08:51;20.93;;;13.80;;
3311;SDS011;1668;49.648;8.570;2023-03-01T12:11:32;19.23;;;13.97;;
3311;SDS011;1668;49.648;8.570;2023-03-01T12:14:13;17.77;;;12.80;;
3311;SDS011;1668;49.648;8.570;2023-03-01T12:19:58;19.63;;;13.40;;
3311;SDS011;1668;49.648;8.570;2023-03-01T12:22:38;18.70;;;14.00;;
3311;SDS011;1668;49.648;8.570;2023-03-01T12:25:19;20.20;;;14.50;;
3311;SDS011;1668;49.648;8.570;2023-03-01T12:28:02;19.07;;;13.30;;
3311;SDS011;1668;49.648;8.570;2023-03-01T12:30:50;18.07;;;13.47;;
3311;SDS011;1668;49.648;8.570;2023-03-01T12:33:43;19.00;;;12.77;;
3311;SDS011;1668;49.648;8.570;2023-03-01T12:39:36;19.87;;;13.03;;
3311;SDS011;1668;49.648;8.570;2023-03-01T12:42:13;17.47;;;12.03;;
3311;SDS011;1668;49.648;8.570;2023-03-01T12:44:54;15.80;;;11.77;;
3311;SDS011;1668;49.648;8.570;2023-03-01T12:47:37;17.40;;;12.67;;
3311;SDS011;1668;49.648;8.570;2023-03-01T12:50:17;17.70;;;12.50;;
3311;SDS011;1668;49.648;8.570;2023-03-01T12:52:47;18.57;;;12.50;;
3311;SDS011;1668;49.648;8.570;2023-03-01T12:55:26;17.73;;;12.90;;
3311;SDS011;1668;49.648;8.570;2023-03-01T12:57:58;18.03;;;11.77;;
3311;SDS011;1668;49.648;8.570;2023-03-01T13:00:35;17.00;;;12.20;;
3311;SDS011;1668;49.648;8.570;2023-03-01T13:03:10;17.77;;;13.67;;
3311;SDS011;1668;49.648;8.570;2023-03-01T13:05:48;16.80;;;12.67;;
3311;SDS011;1668;49.648;8.570;2023-03-01T13:08:27;16.57;;;12.57;;
3311;SDS011;1668;49.648;8.570;2023-03-01T13:11:01;19.13;;;13.20;;
3311;SDS011;1668;49.648;8.570;2023-03-01T13:13:30;16.67;;;12.17;;
3311;SDS011;1668;49.648;8.570;2023-03-01T13:15:57;17.27;;;11.90;;
3311;SDS011;1668;49.648;8.570;2023-03-01T13:19:08;17.77;;;12.77;;
3311;SDS011;1668;49.648;8.570;2023-03-01T13:21:40;16.40;;;12.03;;
3311;SDS011;1668;49.648;8.570;2023-03-01T13:29:54;17.37;;;12.10;;
3311;SDS011;1668;49.648;8.570;2023-03-01T13:32:22;17.67;;;12.70;;
3311;SDS011;1668;49.648;8.570;2023-03-01T13:34:56;18.73;;;11.80;;
3311;SDS011;1668;49.648;8.570;2023-03-01T13:37:27;16.23;;;11.73;;
3311;SDS011;1668;49.648;8.570;2023-03-01T13:45:58;21.43;;;13.07;;
3311;SDS011;1668;49.648;8.570;2023-03-01T13:48:26;14.27;;;11.37;;
3311;SDS011;1668;49.648;8.570;2023-03-01T13:50:57;16.37;;;11.50;;
3311;SDS011;1668;49.648;8.570;2023-03-01T13:53:28;19.70;;;11.53;;
3311;SDS011;1668;49.648;8.570;2023-03-01T13:55:58;16.70;;;10.97;;
3311;SDS011;1668;49.648;8.570;2023-03-01T13:58:28;14.07;;;9.90;;
3311;SDS011;1668;49.648;8.570;2023-03-01T14:00:59;13.67;;;9.90;;
3311;SDS011;1668;49.648;8.570;2023-03-01T14:03:27;14.47;;;10.40;;
3311;SDS011;1668;49.648;8.570;2023-03-01T14:08:43;16.00;;;9.83;;
3311;SDS011;1668;49.648;8.570;2023-03-01T14:17:27;13.57;;;9.70;;
3311;SDS011;1668;49.648;8.570;2023-03-01T14:20:08;19.27;;;8.90;;
3311;SDS011;1668;49.648;8.570;2023-03-01T14:22:38;12.97;;;8.70;;
3311;SDS011;1668;49.648;8.570;2023-03-01T14:25:16;11.90;;;8.77;;
3311;SDS011;1668;49.648;8.570;2023-03-01T14:27:50;13.17;;;8.33;;
3311;SDS011;1668;49.648;8.570;2023-03-01T14:30:22;14.67;;;9.27;;
3311;SDS011;1668;49.648;8.570;2023-03-01T14:32:52;11.33;;;7.77;;
3311;SDS011;1668;49.648;8.570;2023-03-01T14:35:21;11.27;;;8.40;;
3311;SDS011;1668;49.648;8.570;2023-03-01T14:37:49;13.23;;;8.43;;
3311;SDS011;1668;49.648;8.570;2023-03-01T14:40:23;11.27;;;8.47;;
3311;SDS011;1668;49.648;8.570;2023-03-01T14:42:53;13.27;;;8.70;;
3311;SDS011;1668;49.648;8.570;2023-03-01T14:45:22;11.87;;;9.00;;
3311;SDS011;1668;49.648;8.570;2023-03-01T14:47:52;11.13;;;8.20;;
3311;SDS011;1668;49.648;8.570;2023-03-01T14:50:21;10.93;;;7.27;;
3311;SDS011;1668;49.648;8.570;2023-03-01T14:52:52;12.30;;;7.27;;
3311;SDS011;1668;49.648;8.570;2023-03-01T14:55:21;11.17;;;7.70;;
3311;SDS011;1668;49.648;8.570;2023-03-01T14:57:51;11.30;;;8.50;;
3311;SDS011;1668;49.648;8.570;2023-03-01T15:00:19;14.03;;;7.87;;
3311;SDS011;1668;49.648;8.570;2023-03-01T15:02:51;12.77;;;8.47;;
3311;SDS011;1668;49.648;8.570;2023-03-01T15:05:22;14.37;;;9.60;;
3311;SDS011;1668;49.648;8.570;2023-03-01T15:07:53;11.50;;;7.90;;
3311;SDS011;1668;49.648;8.570;2023-03-01T15:10:22;12.00;;;8.23;;
3311;SDS011;1668;49.648;8.570;2023-03-01T15:12:50;9.83;;;7.70;;
3311;SDS011;1668;49.648;8.570;2023-03-01T15:15:28;10.23;;;8.10;;
3311;SDS011;1668;49.648;8.570;2023-03-01T15:18:02;11.70;;;8.17;;
3311;SDS011;1668;49.648;8.570;2023-03-01T15:20:31;10.57;;;7.60;;
3311;SDS011;1668;49.648;8.570;2023-03-01T15:23:01;11.63;;;7.47;;
3311;SDS011;1668;49.648;8.570;2023-03-01T15:25:29;11.60;;;8.10;;
3311;SDS011;1668;49.648;8.570;2023-03-01T15:27:57;9.90;;;8.17;;
3311;SDS011;1668;49.648;8.570;2023-03-01T15:30:29;11.73;;;7.70;;
3311;SDS011;1668;49.648;8.570;2023-03-01T15:35:53;11.37;;;7.67;;
3311;SDS011;1668;49.648;8.570;2023-03-01T15:38:25;11.60;;;8.77;;
3311;SDS011;1668;49.648;8.570;2023-03-01T15:40:54;10.90;;;7.63;;
3311;SDS011;1668;49.648;8.570;2023-03-01T15:43:42;12.03;;;8.40;;
3311;SDS011;1668;49.648;8.570;2023-03-01T15:46:21;11.00;;;8.53;;
3311;SDS011;1668;49.648;8.570;2023-03-01T15:48:51;11.40;;;8.10;;
3311;SDS011;1668;49.648;8.570;2023-03-01T15:51:32;12.97;;;8.70;;
3311;SDS011;1668;49.648;8.570;2023-03-01T15:54:01;13.23;;;8.50;;
3311;SDS011;1668;49.648;8.570;2023-03-01T15:56:31;11.23;;;7.73;;
3311;SDS011;1668;49.648;8.570;2023-03-01T15:58:59;12.77;;;8.87;;
3311;SDS011;1668;49.648;8.570;2023-03-01T16:01:28;10.97;;;8.30;;
3311;SDS011;1668;49.648;8.570;2023-03-01T16:03:55;11.20;;;9.13;;